Latest Coastal Weather Observations for Bougainville Reef

IDQ60701

Issued at 5:22 pm EST Wednesday 8 February 2023 (issued every 10 minutes, with the page automatically refreshed every 10 minutes)

About coastal observations | Map of coastal stations | Coastal observations for QLD | Marine services | Other Formats
Station Details ID: 200840 Name: BOUGAINVILLE REEF Lat: -15.49 Lon: 147.12 Height: 0.0 m
Data from the previous 72 hours. | See also: Recent months for locations in Queensland
Date/Time
EST
Wind Sea
Height
m
Swell Vis
km
Cloud Weather Temp
°C
Press
MSL
hPa
Rain since
9am
mm
Dir  Spd
kts
Gust
kts
Height
m
Period
s
Dir
08/05:00pm S 12 14 - - - - - - - 28.9 999.9 -
08/04:30pm S 8 9 - - - - - - - 27.9 999.9 -
08/04:00pm SSW 10 12 - - - - - - - 28.5 999.9 -
08/03:30pm S 10 12 - - - - - - - 28.9 1000.1 -
08/03:00pm S 11 12 - - - - - - - 29.0 1000.4 -
08/02:30pm S 10 11 - - - - - - - 28.7 1000.7 -
08/02:00pm S 10 11 - - - - - - - 28.5 1001.1 -
08/01:30pm S 9 10 - - - - - - - 28.3 1001.3 -
08/01:00pm S 10 12 - - - - - - - 28.0 1001.7 -
08/12:30pm SSE 11 14 - - - - - - - 27.4 1002.0 -
08/12:00pm SSE 6 13 - - - - - - - 28.6 1002.4 -
08/11:30am SSE 11 12 - - - - - - - 28.4 1002.8 -
08/11:00am S 1 3 - - - - - - - 27.4 1002.8 -
08/10:30am S 10 12 - - - - - - - 28.8 1002.9 -
08/10:00am SSE 9 11 - - - - - - - 28.3 1003.2 -
08/09:30am SSE 11 13 - - - - - - - 28.1 1003.1 -
08/09:00am SSE 10 11 - - - - - - - 28.8 1003.4 -
08/08:30am SSE 12 15 - - - - - - - 29.0 1003.2 -
08/08:00am S 11 13 - - - - - - - 28.6 1003.2 -
08/07:30am SSE 8 11 - - - - - - - 28.4 1003.0 -
08/07:00am SE 8 11 - - - - - - - 26.9 1002.8 -
08/06:30am SSE 8 9 - - - - - - - 27.7 1002.4 -
08/06:00am SE 12 15 - - - - - - - 26.6 1002.2 -
08/05:30am S 11 13 - - - - - - - 27.2 1001.7 -
08/05:00am S 14 19 - - - - - - - 25.8 1001.5 -
08/04:30am S 7 15 - - - - - - - 26.6 1001.5 -
08/04:00am S 7 10 - - - - - - - 25.6 1001.6 -
08/03:30am CALM 0 3 - - - - - - - 25.8 1002.3 -
08/03:00am SSW 7 9 - - - - - - - 25.7 1001.5 -
08/02:30am SE 11 13 - - - - - - - 27.0 1001.9 -
08/02:00am SSE 5 7 - - - - - - - 27.0 1002.2 -
08/01:30am S 10 13 - - - - - - - 27.1 1002.4 -
08/01:00am SSE 9 11 - - - - - - - 27.9 1003.3 -
08/12:30am S 9 13 - - - - - - - 26.7 1003.5 -
08/12:00am S 9 10 - - - - - - - 27.2 1004.2 -
 
Date/Time
EST
Wind Sea
Height
m
Swell Vis
km
Cloud Weather Temp
°C
Press
MSL
hPa
Rain since
9am
mm
Dir  Spd
kts
Gust
kts
Height
m
Period
s
Dir
07/11:30pm SE 10 13 - - - - - - - 27.0 1004.3 -
07/11:00pm SE 14 16 - - - - - - - 25.8 1004.6 -
07/10:30pm SE 12 14 - - - - - - - 28.2 1004.8 -
07/10:00pm SSE 11 14 - - - - - - - 28.6 1004.8 -
07/09:30pm SSE 10 12 - - - - - - - 29.1 1004.5 -
07/09:00pm SSE 9 11 - - - - - - - 29.0 1004.2 -
07/08:30pm SSE 10 11 - - - - - - - 29.0 1004.0 -
07/08:00pm SSE 11 13 - - - - - - - 29.0 1003.9 -
07/07:30pm SSE 11 13 - - - - - - - 29.1 1003.5 -
07/07:00pm SSE 11 12 - - - - - - - 29.1 1003.5 -
07/06:30pm S 10 12 - - - - - - - 28.8 1003.7 -
07/06:00pm S 9 11 - - - - - - - 29.1 1003.0 -
07/05:30pm S 9 11 - - - - - - - 28.7 1002.5 -
07/05:00pm S 8 9 - - - - - - - 29.0 1002.8 -
07/04:30pm S 8 9 - - - - - - - 29.0 1003.0 -
07/04:00pm SSE 8 9 - - - - - - - 28.8 1003.3 -
07/03:30pm SSE 8 9 - - - - - - - 28.9 1003.6 -
07/03:00pm SSE 9 10 - - - - - - - 29.0 1003.8 -
07/02:30pm SSE 8 9 - - - - - - - 29.0 1004.0 -
07/02:00pm SSE 9 10 - - - - - - - 29.0 1004.3 -
07/01:30pm SSE 9 11 - - - - - - - 28.7 1004.4 -
07/01:00pm SSE 9 11 - - - - - - - 29.1 1004.7 -
07/12:30pm SSE 9 11 - - - - - - - 29.0 1004.7 -
07/12:00pm SSE 9 11 - - - - - - - 29.1 1004.9 -
07/11:30am SSE 8 9 - - - - - - - 29.2 1005.1 -
07/11:00am SSE 8 9 - - - - - - - 28.9 1005.8 -
07/10:30am SE 9 10 - - - - - - - 28.8 1005.9 -
07/10:00am SE 8 9 - - - - - - - 28.8 1005.9 -
07/09:30am SE 8 10 - - - - - - - 28.8 1006.0 -
07/09:00am SE 8 9 - - - - - - - 28.8 1006.2 -
07/08:30am SE 9 10 - - - - - - - 28.8 1006.1 -
07/08:00am SE 9 10 - - - - - - - 28.9 1005.8 -
07/07:30am SSE 9 10 - - - - - - - 28.7 1005.7 -
07/07:00am SE 9 11 - - - - - - - 28.8 1005.6 -
07/06:30am SE 9 10 - - - - - - - 28.8 1005.4 -
07/06:00am SE 10 11 - - - - - - - 28.8 1005.2 -
07/05:30am SE 10 11 - - - - - - - 28.6 1004.8 -
07/05:00am SE 9 11 - - - - - - - 28.6 1004.4 -
07/04:30am SE 10 12 - - - - - - - 28.8 1004.3 -
07/04:00am SE 10 11 - - - - - - - 28.7 1004.5 -
07/03:30am ESE 10 11 - - - - - - - 28.6 1004.7 -
07/03:00am SE 11 12 - - - - - - - 28.5 1004.8 -
07/02:30am ESE 10 11 - - - - - - - 28.7 1004.8 -
07/02:00am ESE 11 12 - - - - - - - 28.4 1004.8 -
07/01:30am ESE 10 11 - - - - - - - 28.7 1005.3 -
07/01:00am ESE 10 11 - - - - - - - 28.7 1005.5 -
07/12:30am ESE 9 11 - - - - - - - 28.7 1005.8 -
07/12:00am ESE 9 11 - - - - - - - 28.7 1006.3 -
 
Date/Time
EST
Wind Sea
Height
m
Swell Vis
km
Cloud Weather Temp
°C
Press
MSL
hPa
Rain since
9am
mm
Dir  Spd
kts
Gust
kts
Height
m
Period
s
Dir
06/11:30pm ESE 9 10 - - - - - - - 28.8 1006.8 -
06/11:00pm ESE 9 11 - - - - - - - 28.8 1007.0 -
06/10:30pm ESE 10 11 - - - - - - - 29.0 1007.1 -
06/10:00pm ESE 9 11 - - - - - - - 29.0 1007.0 -
06/09:30pm ESE 10 11 - - - - - - - 28.9 1006.8 -
06/09:00pm ESE 9 10 - - - - - - - 29.0 1006.6 -
06/08:30pm ESE 10 11 - - - - - - - 29.0 1006.3 -
06/08:00pm ESE 9 11 - - - - - - - 28.9 1006.2 -
06/07:30pm ESE 8 10 - - - - - - - 29.1 1006.2 -
06/07:00pm SE 8 9 - - - - - - - 28.9 1006.1 -
06/06:30pm SE 8 9 - - - - - - - 28.9 1005.7 -
06/06:00pm SE 8 9 - - - - - - - 28.9 1005.5 -
06/05:30pm SE 8 9 - - - - - - - 28.9 1005.5 -
06/05:00pm ESE 8 9 - - - - - - - 28.7 1005.2 -
06/04:30pm SE 6 8 - - - - - - - 28.2 1005.4 -
06/04:00pm ESE 6 7 - - - - - - - 28.7 1005.3 -
06/03:30pm ESE 6 7 - - - - - - - 28.7 1005.6 -
06/03:00pm SE 1 7 - - - - - - - 28.5 1005.8 -
06/02:30pm CALM 0 6 - - - - - - - 28.3 1005.9 -
06/02:00pm SE 1 2 - - - - - - - 28.2 1005.7 -
06/01:30pm CALM 0 2 - - - - - - - 28.2 1005.9 -
06/01:00pm CALM 0 2 - - - - - - - 28.0 1006.3 -
06/12:30pm SE 1 3 - - - - - - - 28.2 1006.6 -
06/12:00pm CALM 0 3 - - - - - - - 28.1 1007.0 -
06/11:30am ESE 1 3 - - - - - - - 28.3 1007.5 -
06/11:00am SE 1 3 - - - - - - - 28.3 1007.9 -
06/10:30am SE 7 8 - - - - - - - 28.3 1008.1 -
06/10:00am SE 1 2 - - - - - - - 28.8 1008.4 -
06/09:30am SE 1 3 - - - - - - - 28.7 1008.4 -
06/09:00am SE 1 3 - - - - - - - 29.0 1008.5 -
06/08:30am SE 1 3 - - - - - - - 28.7 1008.4 -
06/08:00am CALM 0 3 - - - - - - - 28.8 1008.2 -
06/07:30am CALM 0 2 - - - - - - - 28.5 1008.0 -
06/07:00am SSE 2 4 - - - - - - - 28.3 1007.6 -
06/06:30am SSE 4 4 - - - - - - - 28.2 1007.1 -
06/06:00am SSE 5 6 - - - - - - - 27.3 1006.9 -
06/05:30am CALM 0 3 - - - - - - - 28.1 1006.6 -
06/05:00am CALM 0 0 - - - - - - - 27.8 1006.3 -
06/04:30am CALM 0 0 - - - - - - - 28.4 1005.9 -
06/04:00am SSE 3 3 - - - - - - - 28.4 1005.8 -
06/03:30am SSE 3 3 - - - - - - - 28.4 1005.6 -
06/03:00am CALM 0 0 - - - - - - - 28.4 1005.6 -
06/02:30am SE 3 3 - - - - - - - 28.3 1005.6 -
06/02:00am E 3 4 - - - - - - - 28.4 1006.0 -
06/01:30am ESE 3 4 - - - - - - - 28.4 1006.0 -
06/01:00am E 3 4 - - - - - - - 28.4 1006.3 -
06/12:30am E 3 4 - - - - - - - 28.4 1006.6 -
06/12:00am E 4 4 - - - - - - - 28.6 1006.7 -
 
Date/Time
EST
Wind Sea
Height
m
Swell Vis
km
Cloud Weather Temp
°C
Press
MSL
hPa
Rain since
9am
mm
Dir  Spd
kts
Gust
kts
Height
m
Period
s
Dir
05/11:30pm E 3 4 - - - - - - - 28.6 1007.2 -
05/11:00pm E 4 4 - - - - - - - 28.4 1007.5 -
05/10:30pm E 3 4 - - - - - - - 28.7 1007.5 -
05/10:00pm ENE 3 3 - - - - - - - 28.8 1007.4 -
05/09:30pm ESE 3 4 - - - - - - - 28.7 1007.2 -
05/09:00pm SE 1 3 - - - - - - - 28.7 1007.1 -
05/08:30pm CALM 0 0 - - - - - - - 28.7 1006.7 -
05/08:00pm NNW 3 3 - - - - - - - 28.7 1006.6 -
05/07:30pm NE 1 4 - - - - - - - 28.8 1006.2 -
05/07:00pm NNW 3 4 - - - - - - - 28.9 1005.8 -
05/06:30pm N 3 4 - - - - - - - 29.3 1005.5 -
05/06:00pm NNW 1 5 - - - - - - - 30.0 1005.2 -
05/05:30pm NNW 1 5 - - - - - - - 29.6 1005.0 -

Other formats

Comma delimited format used in spreadsheet applications
http://www.bom.gov.au/fwo/IDQ60701/IDQ60701.95288.axf

JavaScript Object Notation format (JSON) in row-major order
http://www.bom.gov.au/fwo/IDQ60701/IDQ60701.95288.json

Data quality

Most of these data are generated automatically and are frequently updated. Quality checks on data are not normally performed. It is possible for incorrect values to appear. Refer to information at About Latest Weather Observations and please check the disclaimer before using these data.